Flight Track Log - Related Links

Times and Time Zones

All times are in EDT time to prevent confusion due to time zone crossing. See the GJS3649 flight status page for this flight to view local times or setup timezone preferences in your user account.

Time Position Orientation Groundspeed Altitude Reporting Facility
EDT Latitude Longitude Course Direction KTS MPH feet Rate Location/Type
Sat 09:08:25 AM 43.5414 -116.1528 90° East 163 188 5,100  Level Salt Lake Center
Sat 09:09:26 AM 43.5175 -116.0700 112° Southeast 221 254 7,100 1,869 Climbing Salt Lake Center
Sat 09:10:27 AM 43.5117 -115.9728 95° East 272 313 8,900 1,983 Climbing Salt Lake Center
Sat 09:11:00 AM 43.6483 -115.6195 78° East  Level FlightAware Approximate
Sat 09:11:27 AM 43.5303 -115.8617 77° East 285 328 11,100  Level Salt Lake Center
Sat 09:12:00 AM 43.6697 -115.4670 83° East  Level FlightAware Approximate
Sat 09:12:28 AM 43.5494 -115.7461 77° East 318 366 12,600  Level Salt Lake Center
Sat 09:13:00 AM 43.6833 -115.3081 90° East  Level FlightAware Approximate
Sat 09:13:28 AM 43.5725 -115.6122 77° East 341 392 14,500  Level Salt Lake Center
Sat 09:14:29 AM 43.5947 -115.4831 77° East 358 412 16,200 1,721 Climbing Salt Lake Center
Sat 09:15:30 AM 43.6183 -115.3406 77° East 365 420 18,000 1,636 Climbing Salt Lake Center
Sat 09:16:30 AM 43.6408 -115.2061 77° East 372 428 19,500 1,587 Climbing Salt Lake Center
Sat 09:17:31 AM 43.6656 -115.0569 77° East 379 436 21,200 1,574 Climbing Salt Lake Center
Sat 09:18:32 AM 43.6875 -114.9197 77° East 384 442 22,700 1,525 Climbing Salt Lake Center
Sat 09:19:33 AM 43.7131 -114.7594 78° East 386 444 24,300 1,438 Climbing Salt Lake Center
Sat 09:20:33 AM 43.7356 -114.6189 77° East 392 451 25,600 1,140 Climbing Salt Lake Center
Sat 09:21:34 AM 43.7594 -114.4772 77° East 398 458 26,600 934 Climbing Salt Lake Center
Sat 09:22:35 AM 43.7842 -114.3089 78° East 400 460 27,500 787 Climbing Salt Lake Center
Sat 09:23:36 AM 43.8083 -114.1581 77° East 417 480 28,200 744 Climbing Salt Lake Center
Sat 09:24:36 AM 43.8325 -114.0058 78° East 424 488 29,000 843 Climbing Salt Lake Center
Sat 09:25:37 AM 43.8592 -113.8253 78° East 428 493 29,900 836 Climbing Salt Lake Center
Sat 09:26:38 AM 43.8822 -113.6703 78° East 429 494 30,700 738 Climbing Salt Lake Center
Sat 09:27:39 AM 43.9050 -113.5131 79° East 433 498 31,400 787 Climbing Salt Lake Center
Sat 09:28:40 AM 43.9297 -113.3286 79° East 436 502 32,300 843 Climbing Salt Lake Center
Sat 09:29:40 AM 43.9525 -113.1717 79° East 433 498 33,100 793 Climbing Salt Lake Center
Sat 09:30:41 AM 43.9753 -113.0139 79° East 436 502 33,900 738 Climbing Salt Lake Center
Sat 09:31:42 AM 44.0011 -112.8311 79° East 434 499 34,600 541 Climbing Salt Lake Center
Sat 09:32:43 AM 44.0236 -112.6750 79° East 432 497 35,000 197 Climbing Salt Lake Center
Sat 09:33:44 AM 44.0478 -112.5169 78° East 435 501 35,000  Level Salt Lake Center
Sat 09:34:45 AM 44.0722 -112.3314 80° East 437 503 35,000  Level Salt Lake Center
Sat 09:35:45 AM 44.0897 -112.1708 81° East 439 505 35,000  Level Salt Lake Center
Sat 09:36:46 AM 44.0903 -112.0117 90° East 432 497 35,000  Level Salt Lake Center
Sat 09:37:47 AM 44.0925 -111.8217 89° East 439 505 35,000  Level Salt Lake Center
Sat 09:38:48 AM 44.0936 -111.6583 89° East 444 511 35,000  Level Salt Lake Center
Sat 09:39:49 AM 44.0944 -111.4686 90° East 444 511 35,000  Level Salt Lake Center
Sat 09:40:50 AM 44.0950 -111.3044 90° East 445 512 35,000  Level Salt Lake Center
Sat 09:41:51 AM 44.0953 -111.1414 90° East 444 511 35,000  Level Salt Lake Center
Sat 09:42:52 AM 44.0947 -110.9481 90° East 450 518 35,000  Level Salt Lake Center
Sat 09:43:53 AM 44.0942 -110.7839 90° East 447 514 35,000  Level Salt Lake Center
Sat 09:44:54 AM 44.0933 -110.5903 90° East 448 516 35,000  Level Salt Lake Center
Sat 09:45:55 AM 44.0936 -110.4217 90° East 455 524 35,000  Level Salt Lake Center
Sat 09:46:56 AM 44.0925 -110.2544 90° East 454 522 35,000  Level Salt Lake Center
Sat 09:47:57 AM 44.0900 -110.0603 91° East 452 520 35,000  Level Salt Lake Center
Sat 09:48:58 AM 44.0886 -109.8922 91° East 453 521 35,000  Level Salt Lake Center
Sat 09:49:59 AM 44.0872 -109.7233 91° East 455 524 35,000  Level Salt Lake Center
Sat 09:51:00 AM 44.0836 -109.5278 91° East 455 524 35,000  Level Salt Lake Center
Sat 09:52:01 AM 44.0817 -109.3444 91° East 453 521 35,000  Level Salt Lake Center
Sat 09:53:02 AM 44.0786 -109.1756 91° East 457 526 35,000  Level Salt Lake Center
Sat 09:54:03 AM 44.0758 -109.0061 91° East 458 527 35,000  Level Salt Lake Center
Sat 09:55:04 AM 44.0719 -108.8089 92° East 459 528 35,000  Level Salt Lake Center
Sat 09:56:06 AM 44.0686 -108.6406 92° East 458 527 35,000  Level Salt Lake Center
Sat 09:57:07 AM 44.0642 -108.4708 92° East 460 529 35,000  Level Salt Lake Center
Sat 09:58:08 AM 44.0589 -108.2736 92° East 460 529 35,000  Level Salt Lake Center
Sat 09:59:09 AM 44.0556 -108.1056 92° East 457 526 35,000  Level Salt Lake Center
Sat 10:00:10 AM 44.0503 -107.9106 92° East 453 521 35,000  Level Salt Lake Center
Sat 10:01:11 AM 44.0447 -107.7439 93° East 452 520 35,000  Level Salt Lake Center
Sat 10:02:12 AM 44.0403 -107.5769 92° East 452 520 35,000  Level Salt Lake Center
Sat 10:03:14 AM 44.0344 -107.3836 92° East 450 518 35,000  Level Salt Lake Center
Sat 10:04:15 AM 44.0286 -107.2186 93° East 449 517 35,000  Level Salt Lake Center
Sat 10:05:16 AM 44.0222 -107.0272 93° East 447 514 35,000  Level Salt Lake Center
Sat 10:06:17 AM 44.0161 -106.8622 93° East 447 514 35,000  Level Salt Lake Center
Sat 10:07:22 AM 44.0092 -106.6767 93° East 448 516 35,000  Level Denver Center
Sat 10:08:23 AM 44.0033 -106.5111 93° East 448 516 35,000  Level Denver Center
Sat 10:09:24 AM 44.0006 -106.3186 91° East 447 514 35,000  Level Denver Center
Sat 10:10:25 AM 44.0033 -106.1519 89° East 449 517 35,000  Level Denver Center
Sat 10:11:27 AM 44.0042 -105.9578 90° East 450 518 35,000  Level Denver Center
Sat 10:12:28 AM 44.0036 -105.7942 90° East 446 513 35,000  Level Denver Center
Sat 10:13:29 AM 44.0042 -105.6297 90° East 445 512 35,000  Level Denver Center
Sat 10:14:31 AM 44.0056 -105.4356 89° East 448 516 35,000  Level Denver Center
Sat 10:15:32 AM 44.0042 -105.2722 91° East 445 512 35,000  Level Denver Center
Sat 10:16:33 AM 44.0042 -105.1058 90° East 447 514 35,000  Level Denver Center
Sat 10:17:35 AM 44.0033 -104.9119 90° East 449 517 35,000  Level Denver Center
Sat 10:18:48 AM 44.0011 -104.6922 91° East 447 514 35,000  Level Denver Center
Sat 10:19:50 AM 43.9992 -104.5261 91° East 449 517 35,000  Level Denver Center
Sat 10:20:51 AM 43.9983 -104.3611 90° East 447 514 35,000  Level Denver Center
Sat 10:21:53 AM 43.9953 -104.1681 91° East 448 516 35,000  Level Denver Center
Sat 10:22:54 AM 43.9942 -104.0039 90° East 444 511 35,000  Level Denver Center
Sat 10:23:56 AM 43.9917 -103.8378 91° East 447 514 35,000  Level Denver Center
Sat 10:24:57 AM 43.9900 -103.6483 91° East 439 505 35,000  Level Denver Center
Sat 10:25:59 AM 43.9875 -103.4858 91° East 440 506 35,000  Level Denver Center
Sat 10:27:01 AM 43.9828 -103.2947 92° East 442 509 35,000  Level Denver Center
Sat 10:28:02 AM 43.9794 -103.1342 92° East 437 503 35,000  Level Denver Center
Sat 10:29:04 AM 43.9764 -102.9475 91° East 435 501 35,000  Level Denver Center
Sat 10:30:06 AM 43.9731 -102.7894 92° East 433 498 35,000  Level Denver Center
Sat 10:31:07 AM 43.9681 -102.6192 92° East 439 505 35,000  Level Denver Center
Sat 10:32:09 AM 43.9606 -102.4483 93° East 441 507 35,000  Level Denver Center
Sat 10:33:11 AM 43.9544 -102.2789 93° East 443 510 35,000  Level Denver Center
Sat 10:34:12 AM 43.9478 -102.1064 93° East 445 512 35,000  Level Denver Center
Sat 10:35:14 AM 43.9400 -101.9011 93° East 446 513 35,000  Level Denver Center
Sat 10:36:16 AM 43.9342 -101.7308 93° East 445 512 35,000  Level Denver Center
Sat 10:37:17 AM 43.9306 -101.5636 92° East 442 509 35,000  Level Denver Center
Sat 10:38:19 AM 43.9244 -101.3953 93° East 439 505 35,000  Level Denver Center
Sat 10:39:21 AM 43.9161 -101.2219 94° East 449 517 35,000  Level Denver Center
Sat 10:40:23 AM 43.9103 -101.0539 93° East 443 510 35,000  Level Minneapolis Center
Sat 10:41:25 AM 43.9019 -100.8836 94° East 444 511 35,000  Level Minneapolis Center
Sat 10:42:26 AM 43.8942 -100.6828 93° East 441 507 35,000  Level Minneapolis Center
Sat 10:43:27 AM 43.8864 -100.5128 94° East 443 510 35,000  Level Minneapolis Center
Sat 10:44:28 AM 43.8786 -100.3428 94° East 444 511 35,000  Level Minneapolis Center
Sat 10:45:29 AM 43.8700 -100.1744 94° East 441 507 35,000  Level Minneapolis Center
Sat 10:46:43 AM 43.8608 -100.0003 94° East 440 506 35,000  Level Minneapolis Center
Sat 10:47:44 AM 43.8506 -99.8042 94° East 440 506 35,000  Level Minneapolis Center
Sat 10:48:45 AM 43.8417 -99.6317 94° East 446 513 35,000  Level Minneapolis Center
Sat 10:49:46 AM 43.8322 -99.4628 94° East 443 510 35,000  Level Minneapolis Center
Sat 10:50:47 AM 43.8231 -99.2928 94° East 443 510 35,000  Level Minneapolis Center
Sat 10:51:49 AM 43.8103 -99.0889 95° East 446 513 35,000  Level Minneapolis Center
Sat 10:52:50 AM 43.8000 -98.9197 95° East 443 510 35,000  Level Minneapolis Center
Sat 10:53:51 AM 43.7903 -98.7494 94° East 445 512 35,000  Level Minneapolis Center
Sat 10:54:52 AM 43.7797 -98.5964 95° East 447 514 35,000  Level Minneapolis Center
Sat 10:55:53 AM 43.7692 -98.4258 95° East 447 514 35,000  Level Minneapolis Center
Sat 10:56:55 AM 43.7547 -98.2211 96° East 448 516 35,000  Level Minneapolis Center
Sat 10:57:56 AM 43.7433 -98.0511 95° East 448 516 35,000  Level Minneapolis Center
Sat 10:58:57 AM 43.7325 -97.8811 95° East 446 513 35,000  Level Minneapolis Center
Sat 10:59:58 AM 43.7206 -97.7128 96° East 443 510 35,000  Level Minneapolis Center
Sat 11:01:00 AM 43.7086 -97.5442 96° East 443 510 35,000  Level Minneapolis Center
Sat 11:02:01 AM 43.6989 -97.4119 96° East 439 505 35,000  Level Minneapolis Center
Sat 11:03:03 AM 43.6842 -97.2119 96° East 437 503 35,000  Level Minneapolis Center
Sat 11:04:04 AM 43.6703 -97.0467 97° East 437 503 35,000  Level Minneapolis Center
Sat 11:05:05 AM 43.6550 -96.8497 96° East 434 499 35,000  Level Minneapolis Center
Sat 11:06:06 AM 43.6372 -96.6881 99° East 431 496 35,000  Level Minneapolis Center
Sat 11:07:07 AM 43.6119 -96.5261 102° East 433 498 35,000  Level Minneapolis Center
Sat 11:08:09 AM 43.5889 -96.3650 101° East 433 498 35,000  Level Minneapolis Center
Sat 11:09:10 AM 43.5653 -96.2036 101° East 434 499 35,000  Level Minneapolis Center
Sat 11:10:11 AM 43.5414 -96.0428 102° East 434 499 35,000  Level Minneapolis Center
Sat 11:11:12 AM 43.5172 -95.8831 102° East 432 497 35,000  Level Minneapolis Center
Sat 11:12:13 AM 43.4914 -95.7219 102° East 434 499 35,000  Level Minneapolis Center
Sat 11:13:27 AM 43.4572 -95.4986 102° East 430 495 35,000  Level Minneapolis Center
Sat 11:14:28 AM 43.4319 -95.3383 102° East 432 497 35,000  Level Minneapolis Center
Sat 11:15:29 AM 43.4075 -95.1786 102° East 431 496 35,000  Level Minneapolis Center
Sat 11:16:30 AM 43.3814 -95.0203 103° East 428 493 35,000  Level Minneapolis Center
Sat 11:17:43 AM 43.3553 -94.8597 103° East 432 497 35,000  Level Minneapolis Center
Sat 11:18:45 AM 43.3236 -94.6694 103° East 429 494 35,000  Level Minneapolis Center
Sat 11:19:46 AM 43.2967 -94.5117 103° East 426 490 35,000  Level Minneapolis Center
Sat 11:20:48 AM 43.2714 -94.3533 102° East 426 490 35,000  Level Minneapolis Center
Sat 11:21:49 AM 43.2472 -94.2133 103° East 425 489 35,000  Level Minneapolis Center
Sat 11:22:50 AM 43.2164 -94.0261 103° East 424 488 35,000  Level Minneapolis Center
Sat 11:23:51 AM 43.1900 -93.8700 103° East 424 488 35,000  Level Minneapolis Center
Sat 11:24:53 AM 43.1633 -93.7158 103° East 421 484 35,000  Level Minneapolis Center
Sat 11:25:54 AM 43.1361 -93.5622 104° East 419 482 35,000  Level Minneapolis Center
Sat 11:26:55 AM 43.1044 -93.3794 103° East 416 479 35,000  Level Minneapolis Center
Sat 11:27:57 AM 43.0878 -93.2239 98° East 414 476 35,000  Level Minneapolis Center
Sat 11:28:58 AM 43.0783 -93.0658 95° East 421 484 35,000  Level Minneapolis Center
Sat 11:30:00 AM 43.0669 -92.9103 96° East 416 479 35,000  Level Minneapolis Center
Sat 11:31:01 AM 43.0567 -92.7539 95° East 415 478 35,000  Level Minneapolis Center
Sat 11:32:02 AM 43.0456 -92.5992 96° East 412 474 35,000  Level Minneapolis Center
Sat 11:33:04 AM 43.0344 -92.4442 96° East 412 474 35,000 -537 Level Minneapolis Center
Sat 11:34:05 AM 43.0219 -92.2894 96° East 411 473 33,900 -1,073 Descending Minneapolis Center
Sat 11:35:07 AM 43.0092 -92.1036 95° East 411 473 32,800 -1,024 Descending Minneapolis Center
Sat 11:36:08 AM 42.9975 -91.9464 96° East 415 478 31,800 -878 Descending Minneapolis Center
Sat 11:37:10 AM 42.9858 -91.7881 96° East 418 481 31,000 -732 Descending Minneapolis Center
Sat 11:38:11 AM 42.9667 -91.6256 99° East 425 489 30,300 -764 Descending Minneapolis Center
Sat 11:39:47 AM 42.9244 -91.3603 102° East 443 510 29,000 -634 Descending Chicago Center
Sat 11:40:14 AM 42.9139 -91.2925 102° East 443 510 29,000  Level Minneapolis Center
Sat 11:41:15 AM 42.8894 -91.1297 102° East 441 507 29,000  Level Minneapolis Center
Sat 11:42:17 AM 42.8639 -90.9692 102° East 437 503 29,000  Level Minneapolis Center
Sat 11:42:52 AM 42.8508 -90.8744 101° East 434 499 29,000  Level Chicago Center
Sat 11:43:53 AM 42.8258 -90.7156 102° East 432 497 29,000  Level Chicago Center
Sat 11:44:55 AM 42.8003 -90.5575 102° East 429 494 29,000  Level Chicago Center
Sat 11:45:56 AM 42.7700 -90.3689 102° East 427 491 29,000 -634 Level Chicago Center
Sat 11:46:58 AM 42.7439 -90.2131 103° East 424 488 27,700 -1,220 Descending Chicago Center
Sat 11:47:59 AM 42.7192 -90.0639 103° East 410 472 26,500 -1,512 Descending Chicago Center
Sat 11:49:01 AM 42.6922 -89.9056 103° East 403 464 24,600 -1,790 Descending Chicago Center
Sat 11:50:03 AM 42.6689 -89.7633 103° East 392 451 22,800 -1,707 Descending Chicago Center
Sat 11:51:04 AM 42.6458 -89.6222 102° East 386 444 21,100 -1,707 Descending Chicago Center
Sat 11:52:06 AM 42.6228 -89.4836 103° East 380 437 19,300 -1,645 Descending Chicago Center
Sat 11:53:08 AM 42.5992 -89.3492 103° East 372 428 17,700 -1,805 Descending Chicago Center
Sat 11:54:09 AM 42.5742 -89.1983 103° East 358 412 15,600 -1,268 Descending Chicago Center
Sat 11:55:11 AM 42.5500 -89.0800 105° East 336 387 15,100 -387 Descending Chicago Center
Sat 11:56:13 AM 42.5167 -88.9686 112° Southeast 322 371 14,800 -927 Descending Chicago Center
Sat 11:57:14 AM 42.4833 -88.8575 112° Southeast 319 367 13,200 -1,463 Descending Chicago Center
Sat 11:58:16 AM 42.4511 -88.7528 113° Southeast 307 353 11,800 -1,317 Descending Chicago Center
Sat 11:59:17 AM 42.4206 -88.6525 112° Southeast 293 337 10,500 -1,171 Descending Chicago Center
Sat 12:00:19 PM 42.3678 -88.5639 129° Southeast 263 303 9,400 -677 Descending Chicago Center
Sat 12:01:21 PM 42.3247 -88.4922 129° Southeast 260 299 9,100 -195 Descending Chicago Center
Sat 12:02:22 PM 42.2803 -88.4142 128° Southeast 262 302 9,000 -537 Descending Chicago Center
Sat 12:03:24 PM 42.2197 -88.3639 148° Southeast 267 307 8,000 -1,355 Descending Chicago Center
Sat 12:04:26 PM 42.1508 -88.3308 160° South 264 304 6,200 -1,887 Descending Chicago Center
Sat 12:05:28 PM 42.0806 -88.2725 148° Southeast 257 296 4,100 -1,073 Descending Chicago Center
Sat 12:06:29 PM 42.0431 -88.1947 123° Southeast 251 289 4,000 -98 Descending Chicago Center

Login

Don't have an account? Register now (free) for customized features, flight alerts, and more!